Terminal Aerodrome Forecast
Issued by NWS

Home | Current Version | Previous Version | Text Only | Print | Product List | Glossary On
Versions: 1 2 3 4 5 6 7 8 9 10 11 12 13 14 15 16 17 18 19 20 21 22 23 24 25 26 27
000
FTUS45 KBYZ 211140
TAFLVM
TAF
KLVM 211140Z 2112/2212 23011KT P6SM FEW100 BKN200
     FM211400 23014G22KT P6SM VCSH SCT090 BKN150
     FM211800 23025G37KT P6SM VCSH SCT080 BKN120
     FM212200 27023G35KT P6SM VCSH BKN080
     FM220200 26019KT P6SM VCSH SCT070 BKN100
     FM220500 25015KT P6SM SCT100=

USA.gov is the U.S. government's official web portal to all federal, state and local government web resources and services.